Time;durP1;ratioP1;P1;durP2;ratioP2;P2;SDS_P1;SDS_P2;PMS_P1;PMS_P2;Temp;Humidity;BMP_temperature;BMP_pressure;BME280_temperature;BME280_humidity;BME280_pressure;Samples;Min_cycle;Max_cycle;Signal;HPM_P1;HPM_P2
2021/10/18 00:01:54;;;;;;;21.23;8.82;;;;;;;11.37;74.27;100288.38;4987807;28;20687;-55
2021/10/18 00:04:24;;;;;;;23.40;8.80;;;;;;;11.35;73.89;100282.38;4991869;28;20046;-56
2021/10/18 00:06:51;;;;;;;19.05;9.02;;;;;;;11.34;74.01;100278.06;4987695;28;20050;-53
2021/10/18 00:09:19;;;;;;;15.68;7.97;;;;;;;11.34;73.86;100275.47;4988633;28;20046;-56
2021/10/18 00:11:46;;;;;;;22.73;8.90;;;;;;;11.32;73.93;100278.91;4992544;28;20058;-56
2021/10/18 00:14:13;;;;;;;20.42;8.82;;;;;;;11.29;74.26;100278.91;4991365;28;20104;-55
2021/10/18 00:16:40;;;;;;;20.27;9.15;;;;;;;11.28;75.25;100276.34;4995432;28;20054;-56
2021/10/18 00:19:07;;;;;;;19.67;8.45;;;;;;;11.27;75.23;100270.28;4989256;28;20053;-53
2021/10/18 00:21:34;;;;;;;17.27;8.77;;;;;;;11.24;75.45;100264.22;4991846;28;20502;-52
2021/10/18 00:24:01;;;;;;;22.42;10.05;;;;;;;11.21;74.71;100265.09;4992720;28;20043;-55
2021/10/18 00:26:27;;;;;;;18.25;8.50;;;;;;;11.18;75.38;100265.13;4984365;28;20101;-54
2021/10/18 00:28:54;;;;;;;20.15;7.90;;;;;;;11.14;74.47;100258.19;4994142;28;20099;-54
2021/10/18 00:31:21;;;;;;;21.73;9.23;;;;;;;11.11;75.19;100268.59;4985526;28;20105;-52
2021/10/18 00:33:48;;;;;;;22.17;9.20;;;;;;;11.09;75.16;100275.47;4988338;28;20129;-55
2021/10/18 00:36:15;;;;;;;20.77;9.10;;;;;;;11.04;75.17;100273.75;4991590;28;20054;-53
2021/10/18 00:38:41;;;;;;;18.58;8.35;;;;;;;11.07;75.35;100283.25;4998335;28;20089;-52
2021/10/18 00:41:08;;;;;;;24.75;9.35;;;;;;;11.08;74.73;100284.13;4994695;28;20498;-52
2021/10/18 00:43:35;;;;;;;20.20;9.35;;;;;;;11.07;74.88;100292.78;4994368;28;20050;-52
2021/10/18 00:46:02;;;;;;;22.27;10.05;;;;;;;11.05;76.11;100287.59;4996991;28;20053;-55
2021/10/18 00:48:29;;;;;;;21.88;8.85;;;;;;;11.03;75.49;100277.22;4991016;28;20570;-52
2021/10/18 00:50:57;;;;;;;19.92;9.50;;;;;;;11.04;76.11;100278.94;4995025;28;20081;-53
2021/10/18 00:53:26;;;;;;;22.13;9.30;;;;;;;11.02;75.72;100280.66;4990724;28;20375;-53
2021/10/18 00:55:54;;;;;;;21.67;9.88;;;;;;;10.98;75.18;100283.28;4994297;28;20055;-53
2021/10/18 00:58:22;;;;;;;20.17;9.27;;;;;;;10.97;75.28;100282.41;4998794;28;20070;-54
2021/10/18 01:00:49;;;;;;;22.17;9.25;;;;;;;10.94;75.85;100282.41;4988999;28;20042;-53
2021/10/18 01:03:18;;;;;;;23.10;10.27;;;;;;;10.91;75.80;100282.44;4995170;28;20141;-55
2021/10/18 01:05:45;;;;;;;21.13;9.40;;;;;;;10.86;75.25;100273.78;4993104;28;20046;-52
2021/10/18 01:08:12;;;;;;;22.58;9.52;;;;;;;10.83;75.98;100271.16;4997282;28;20042;-54
2021/10/18 01:10:39;;;;;;;24.55;9.15;;;;;;;10.79;76.10;100268.59;4992445;28;20046;-54
2021/10/18 01:13:05;;;;;;;20.52;10.13;;;;;;;10.76;75.78;100267.72;4992403;28;20065;-52
2021/10/18 01:15:32;;;;;;;22.30;9.75;;;;;;;10.68;75.02;100270.34;4999822;28;20498;-52
2021/10/18 01:17:59;;;;;;;21.05;9.07;;;;;;;10.65;75.39;100268.59;4989516;28;20050;-52
2021/10/18 01:20:32;;;;;;;24.80;9.35;;;;;;;10.59;75.69;100270.31;4997089;28;20050;-54
2021/10/18 01:22:59;;;;;;;21.17;9.45;;;;;;;10.56;76.04;100270.28;4993046;28;20077;-55
2021/10/18 01:25:26;;;;;;;22.35;8.65;;;;;;;10.54;75.49;100273.75;4999364;28;20058;-52
2021/10/18 01:27:54;;;;;;;23.52;9.85;;;;;;;10.54;75.89;100268.56;4989845;28;20097;-55
2021/10/18 01:30:21;;;;;;;24.15;9.90;;;;;;;10.54;76.02;100266.00;4991628;28;20105;-54
2021/10/18 01:32:49;;;;;;;26.15;10.32;;;;;;;10.54;76.39;100268.56;4995935;28;20104;-53
2021/10/18 01:35:15;;;;;;;24.88;10.20;;;;;;;10.56;76.26;100266.00;4990630;28;20629;-55
2021/10/18 01:37:42;;;;;;;26.20;10.32;;;;;;;10.56;76.25;100259.94;5001522;28;20054;-55
2021/10/18 01:40:12;;;;;;;27.30;10.20;;;;;;;10.57;76.03;100261.69;4992015;28;20427;-55
2021/10/18 01:42:40;;;;;;;;;;;;;;;10.43;76.51;100259.91;4996393;28;20494;-55
2021/10/18 01:45:09;;;;;;;23.38;9.93;;;;;;;10.53;76.12;100256.50;4987026;28;19925;-53
2021/10/18 01:47:35;;;;;;;22.67;10.02;;;;;;;10.52;76.20;100259.97;4989973;28;20411;-52
2021/10/18 01:50:12;;;;;;;25.98;10.40;;;;;;;10.51;76.34;100262.53;4993239;28;20105;-55
2021/10/18 01:52:39;;;;;;;23.75;9.95;;;;;;;10.53;76.37;100256.50;4991938;28;20054;-51
2021/10/18 01:55:06;;;;;;;24.40;9.20;;;;;;;10.52;76.60;100244.41;4991710;28;20050;-51
2021/10/18 01:57:33;;;;;;;22.27;10.30;;;;;;;10.50;76.85;100238.38;4991856;28;20047;-53
2021/10/18 01:59:59;;;;;;;25.33;9.65;;;;;;;10.49;76.77;100236.66;4992737;28;20117;-54
2021/10/18 02:02:26;;;;;;;24.70;10.70;;;;;;;10.48;77.07;100234.94;4992574;28;20050;-52
2021/10/18 02:04:54;;;;;;;28.27;10.45;;;;;;;10.51;76.39;100236.66;4992777;28;20046;-52
2021/10/18 02:07:21;;;;;;;28.30;10.35;;;;;;;10.47;77.07;100240.94;4992421;28;20112;-52
2021/10/18 02:09:48;;;;;;;30.15;10.82;;;;;;;10.48;77.00;100242.69;4989827;28;20061;-54
2021/10/18 02:12:15;;;;;;;28.08;9.95;;;;;;;10.51;76.77;100237.50;4997813;28;20062;-54
2021/10/18 02:14:41;;;;;;;29.35;9.88;;;;;;;10.51;76.84;100240.09;4989201;28;20491;-53
2021/10/18 02:17:08;;;;;;;30.48;10.95;;;;;;;10.52;76.39;100241.84;4991783;28;20054;-51
2021/10/18 02:19:35;;;;;;;24.30;9.77;;;;;;;10.51;76.55;100242.66;4993056;28;20709;-51
2021/10/18 02:22:01;;;;;;;24.60;9.35;;;;;;;10.51;76.33;100247.84;4999216;28;20058;-51
2021/10/18 02:24:28;;;;;;;27.75;10.82;;;;;;;10.51;76.78;100247.84;5001819;28;20045;-55
2021/10/18 02:26:55;;;;;;;27.30;9.85;;;;;;;10.50;77.69;100246.13;4992201;28;20054;-52
2021/10/18 02:29:21;;;;;;;25.17;9.82;;;;;;;10.49;76.54;100249.59;4993272;28;20721;-54
2021/10/18 02:31:48;;;;;;;30.90;10.02;;;;;;;10.48;77.08;100237.50;4990424;28;20446;-52
2021/10/18 02:34:14;;;;;;;26.63;10.40;;;;;;;10.51;76.59;100247.84;4998659;28;20042;-51
2021/10/18 02:36:41;;;;;;;24.77;9.02;;;;;;;10.52;76.95;100238.38;4994034;28;20096;-52
2021/10/18 02:39:08;;;;;;;23.17;9.50;;;;;;;10.54;77.25;100236.66;4990728;28;20062;-54
2021/10/18 02:41:34;;;;;;;26.17;9.50;;;;;;;10.57;76.78;100238.38;4997421;28;20826;-53
2021/10/18 02:44:01;;;;;;;22.17;10.00;;;;;;;10.57;77.02;100236.63;4989219;28;20050;-54
2021/10/18 02:46:28;;;;;;;29.17;9.00;;;;;;;10.57;76.51;100239.22;4994844;28;20103;-52
2021/10/18 02:48:54;;;;;;;28.80;9.55;;;;;;;10.59;76.99;100240.09;4995916;28;20132;-52
2021/10/18 02:51:21;;;;;;;27.08;9.98;;;;;;;10.60;77.04;100230.63;4998141;28;20054;-52
2021/10/18 02:53:48;;;;;;;26.70;9.75;;;;;;;10.62;77.30;100234.06;4992457;28;20100;-51
2021/10/18 02:56:14;;;;;;;27.90;9.30;;;;;;;10.63;76.97;100230.59;4998015;28;20101;-51
2021/10/18 02:58:41;;;;;;;26.50;9.45;;;;;;;10.65;76.98;100234.06;4990491;28;20125;-53
2021/10/18 03:01:07;;;;;;;27.20;9.85;;;;;;;10.70;77.09;100231.47;4987686;28;20046;-53
2021/10/18 03:03:34;;;;;;;26.83;10.10;;;;;;;10.70;76.67;100232.31;4998729;28;20407;-52
2021/10/18 03:06:01;;;;;;;25.25;8.57;;;;;;;10.72;76.63;100222.84;4988740;28;20049;-51
2021/10/18 03:08:27;;;;;;;26.17;8.85;;;;;;;10.72;76.91;100220.25;4990806;28;20106;-52
2021/10/18 03:10:54;;;;;;;24.85;8.95;;;;;;;10.74;76.92;100222.84;4986594;28;20110;-51
2021/10/18 03:13:20;;;;;;;24.95;8.90;;;;;;;10.74;76.69;100228.88;4986628;28;20108;-52
2021/10/18 03:15:47;;;;;;;25.80;9.00;;;;;;;10.75;76.86;100235.78;4988330;28;20108;-51
2021/10/18 03:18:14;;;;;;;29.45;9.63;;;;;;;10.72;76.74;100228.00;4990353;28;20062;-52
2021/10/18 03:20:41;;;;;;;29.00;10.13;;;;;;;10.75;77.40;100224.56;4999467;28;20671;-51
2021/10/18 03:23:07;;;;;;;23.77;8.60;;;;;;;10.75;76.42;100228.03;4990165;28;20054;-51
2021/10/18 03:25:34;;;;;;;30.75;10.35;;;;;;;10.73;76.90;100227.16;4989012;28;20182;-51
2021/10/18 03:28:03;;;;;;;26.83;9.45;;;;;;;10.77;77.34;100228.88;4990000;28;20054;-51
2021/10/18 03:30:30;;;;;;;28.27;9.80;;;;;;;10.82;77.14;100235.78;4987291;28;20050;-51
2021/10/18 03:32:57;;;;;;;30.58;9.80;;;;;;;10.85;76.79;100225.41;4998358;28;20116;-51
2021/10/18 03:35:24;;;;;;;32.10;10.20;;;;;;;10.87;77.08;100213.28;4991841;28;20050;-51
2021/10/18 03:37:51;;;;;;;30.98;10.75;;;;;;;10.91;77.51;100208.13;4991862;28;20050;-52
2021/10/18 03:40:18;;;;;;;25.23;10.30;;;;;;;10.93;77.60;100200.34;4987988;28;20113;-51
2021/10/18 03:42:44;;;;;;;27.45;10.23;;;;;;;10.94;77.58;100194.28;4987912;28;20608;-52
2021/10/18 03:45:12;;;;;;;29.33;10.48;;;;;;;10.99;77.89;100191.69;4993877;28;20602;-52
2021/10/18 03:47:39;;;;;;;28.80;10.27;;;;;;;11.01;77.70;100184.78;4991151;28;20109;-51
2021/10/18 03:50:07;;;;;;;23.90;8.93;;;;;;;11.04;77.25;100182.16;4993891;28;20109;-51
2021/10/18 03:52:34;;;;;;;27.45;10.05;;;;;;;11.09;76.95;100187.34;4988482;28;20054;-52
2021/10/18 03:55:01;;;;;;;25.35;10.05;;;;;;;11.13;77.13;100204.63;4998098;28;20502;-52
2021/10/18 03:57:28;;;;;;;23.40;9.75;;;;;;;11.17;77.78;100211.53;4987822;28;20042;-52
2021/10/18 03:59:54;;;;;;;26.98;10.02;;;;;;;11.21;77.83;100218.41;4992171;28;20104;-51
2021/10/18 04:02:21;;;;;;;27.77;11.68;;;;;;;11.24;77.92;100226.19;4990163;28;20054;-51
2021/10/18 04:04:48;;;;;;;31.35;11.98;;;;;;;11.26;77.46;100221.88;4993979;28;20384;-52
2021/10/18 04:07:14;;;;;;;31.70;10.43;;;;;;;11.27;77.74;100239.16;4996922;28;20081;-52
2021/10/18 04:09:45;;;;;;;30.17;11.32;;;;;;;11.31;77.32;100217.53;4987089;28;20045;-51
2021/10/18 04:12:12;;;;;;;29.52;10.85;;;;;;;11.31;76.93;100219.25;4994927;28;20125;-52
2021/10/18 04:14:39;;;;;;;31.45;11.35;;;;;;;11.34;77.13;100221.00;4988829;28;20662;-54
2021/10/18 04:17:05;;;;;;;30.83;11.27;;;;;;;11.34;77.49;100213.22;4995136;28;20145;-54
2021/10/18 04:19:32;;;;;;;25.60;10.02;;;;;;;11.34;78.02;100213.22;4993934;28;20062;-55
2021/10/18 04:21:59;;;;;;;27.42;9.50;;;;;;;11.36;77.16;100216.66;4993157;28;20046;-55
2021/10/18 04:24:25;;;;;;;27.27;10.45;;;;;;;11.35;77.28;100225.31;4986441;28;20096;-52
2021/10/18 04:26:52;;;;;;;29.27;10.48;;;;;;;11.34;78.36;100223.59;4986539;28;20042;-52
2021/10/18 04:29:18;;;;;;;31.15;10.60;;;;;;;11.37;77.54;100233.94;4991325;28;20041;-51
2021/10/18 04:31:45;;;;;;;33.75;10.30;;;;;;;11.40;77.34;100218.38;4987633;28;20053;-55
2021/10/18 04:34:12;;;;;;;30.65;10.40;;;;;;;11.42;78.00;100227.03;4990616;28;20394;-52
2021/10/18 04:36:38;;;;;;;28.30;10.52;;;;;;;11.45;78.09;100206.25;4993729;28;20096;-53
2021/10/18 04:39:05;;;;;;;28.58;9.75;;;;;;;11.45;76.88;100227.00;4989631;28;20062;-51
2021/10/18 04:41:31;;;;;;;31.48;9.50;;;;;;;11.43;77.61;100218.38;4987673;28;20096;-51
2021/10/18 04:43:58;;;;;;;33.33;10.77;;;;;;;11.44;77.01;100227.88;4988674;28;20046;-51
2021/10/18 04:46:25;;;;;;;30.20;10.80;;;;;;;11.43;77.49;100218.38;4993869;28;20046;-52
2021/10/18 04:48:51;;;;;;;32.10;10.68;;;;;;;11.40;77.81;100213.19;4999076;28;20120;-51
2021/10/18 04:51:18;;;;;;;35.72;10.90;;;;;;;11.36;77.92;100216.66;4990765;28;20791;-51
2021/10/18 04:53:44;;;;;;;27.17;10.23;;;;;;;11.32;77.80;100211.47;4990225;28;20058;-52
2021/10/18 04:56:11;;;;;;;31.20;10.40;;;;;;;11.33;77.87;100217.53;4989163;28;20077;-51
2021/10/18 04:58:38;;;;;;;28.88;10.02;;;;;;;11.32;76.82;100216.66;4997951;28;20043;-53
2021/10/18 05:01:04;;;;;;;34.35;10.93;;;;;;;11.30;77.36;100213.22;4986079;28;20050;-53
2021/10/18 05:03:31;;;;;;;28.63;10.57;;;;;;;11.28;77.68;100204.56;4993291;28;20068;-51
2021/10/18 05:05:58;;;;;;;29.27;9.50;;;;;;;11.26;77.47;100214.09;4991959;28;20058;-54
2021/10/18 05:08:29;;;;;;;29.13;9.68;;;;;;;11.25;77.71;100220.13;4988192;28;20046;-51
2021/10/18 05:10:56;;;;;;;28.92;9.60;;;;;;;11.26;77.25;100216.69;4989573;28;20564;-51
2021/10/18 05:13:25;;;;;;;24.92;9.50;;;;;;;11.28;77.05;100214.09;4990511;28;20077;-51
2021/10/18 05:15:53;;;;;;;25.75;8.85;;;;;;;11.26;77.68;100206.31;4994206;28;20069;-51
2021/10/18 05:18:21;;;;;;;25.63;9.43;;;;;;;11.27;77.76;100205.44;4991610;28;20050;-51
2021/10/18 05:20:49;;;;;;;23.50;9.48;;;;;;;11.26;77.21;100205.44;4992154;28;21089;-52
2021/10/18 05:23:16;;;;;;;22.42;9.43;;;;;;;11.25;76.50;100209.75;4987700;28;20054;-51
2021/10/18 05:25:44;;;;;;;25.13;9.30;;;;;;;11.21;76.73;100208.06;4989894;28;20046;-53
2021/10/18 05:28:10;;;;;;;28.88;9.30;;;;;;;11.18;77.59;100216.69;5000219;28;20457;-51
2021/10/18 05:30:37;;;;;;;27.50;10.07;;;;;;;11.17;77.91;100219.28;4992343;28;20192;-52
2021/10/18 05:33:05;;;;;;;26.98;9.98;;;;;;;11.15;76.96;100219.31;4993875;28;20046;-54
2021/10/18 05:35:31;;;;;;;26.33;10.60;;;;;;;11.12;77.66;100223.63;4990522;28;20051;-51
2021/10/18 05:37:59;;;;;;;26.27;9.77;;;;;;;11.09;77.74;100202.91;4991392;28;20083;-52
2021/10/18 05:40:26;;;;;;;26.38;9.65;;;;;;;11.08;77.16;100201.19;4998484;28;20071;-51
2021/10/18 05:42:52;;;;;;;27.70;9.95;;;;;;;11.05;78.24;100208.09;4996649;28;20097;-54
2021/10/18 05:45:20;;;;;;;28.27;10.98;;;;;;;11.04;78.02;100201.19;4997492;28;20046;-53
2021/10/18 05:47:57;;;;;;;28.10;10.38;;;;;;;10.99;78.52;100196.88;4995477;28;20046;-51
2021/10/18 05:50:26;;;;;;;24.05;10.00;;;;;;;11.00;78.00;100194.28;4991303;28;20108;-51
2021/10/18 05:52:53;;;;;;;28.65;10.25;;;;;;;11.01;77.93;100200.34;4987737;28;20050;-51
2021/10/18 05:55:20;;;;;;;27.88;9.85;;;;;;;11.03;78.17;100203.78;4998324;28;20050;-51
2021/10/18 05:57:51;;;;;;;30.58;9.55;;;;;;;11.03;77.74;100199.47;4991490;28;20050;-51
2021/10/18 06:00:19;;;;;;;27.42;9.75;;;;;;;11.05;77.93;100197.72;4990744;28;20050;-51
2021/10/18 06:02:46;;;;;;;31.20;10.23;;;;;;;11.07;77.85;100194.28;4992330;28;20100;-51
2021/10/18 06:05:12;;;;;;;27.00;10.75;;;;;;;11.07;78.68;100178.72;4990937;28;20100;-51
2021/10/18 06:07:39;;;;;;;30.85;11.38;;;;;;;11.07;79.34;100168.38;4990571;28;20050;-51
2021/10/18 06:10:07;;;;;;;36.92;11.38;;;;;;;11.09;78.37;100169.22;4993326;28;20046;-51
2021/10/18 06:12:34;;;;;;;29.40;10.57;;;;;;;11.11;78.79;100164.91;4991254;28;20058;-51
2021/10/18 06:15:01;;;;;;;33.67;10.23;;;;;;;11.12;78.91;100149.34;4995538;28;20049;-52
2021/10/18 06:17:27;;;;;;;34.25;11.45;;;;;;;11.13;78.52;100142.41;4996717;28;20046;-51
2021/10/18 06:19:54;;;;;;;35.03;11.45;;;;;;;11.12;79.48;100130.31;4991314;28;20050;-51
2021/10/18 06:22:21;;;;;;;34.72;10.68;;;;;;;11.12;80.01;100125.13;4990027;28;20144;-51
2021/10/18 06:24:49;;;;;;;33.45;11.57;;;;;;;11.12;79.68;100125.13;4990660;28;20042;-55
2021/10/18 06:27:17;;;;;;;29.50;10.82;;;;;;;11.14;79.63;100146.72;4993350;28;20077;-51
2021/10/18 06:29:43;;;;;;;34.53;11.57;;;;;;;11.15;79.23;100130.31;4994082;28;20050;-53
2021/10/18 06:32:12;;;;;;;34.03;10.88;;;;;;;11.18;78.94;100143.28;4989685;28;20053;-54
2021/10/18 06:34:39;;;;;;;35.70;10.63;;;;;;;11.19;78.98;100147.59;4989736;28;20043;-54
2021/10/18 06:37:05;;;;;;;37.45;11.43;;;;;;;11.22;79.96;100136.34;4994357;28;20505;-54
2021/10/18 06:39:32;;;;;;;34.83;10.90;;;;;;;11.21;79.61;100135.47;4988922;28;20077;-54
2021/10/18 06:41:59;;;;;;;36.95;12.27;;;;;;;11.23;79.54;100133.72;4995191;28;20080;-54
2021/10/18 06:44:25;;;;;;;41.08;11.27;;;;;;;11.23;79.56;100127.69;4994183;28;20560;-51
2021/10/18 06:46:52;;;;;;;34.88;11.88;;;;;;;11.25;79.82;100131.97;4999688;28;20046;-54
2021/10/18 06:49:18;;;;;;;36.13;12.80;;;;;;;11.27;79.87;100125.06;4988604;28;20105;-54
2021/10/18 06:51:48;;;;;;;37.78;11.60;;;;;;;11.27;80.29;100119.88;4989335;28;20085;-49
2021/10/18 06:54:16;;;;;;;35.53;11.65;;;;;;;11.28;79.57;100110.38;4992379;28;20042;-51
2021/10/18 06:56:44;;;;;;;32.38;11.25;;;;;;;11.28;79.69;100103.44;4989605;28;20538;-52
2021/10/18 06:59:12;;;;;;;40.08;11.75;;;;;;;11.29;80.24;100118.13;4994229;28;20054;-51
2021/10/18 07:01:39;;;;;;;42.85;11.90;;;;;;;11.30;79.88;100111.22;4990577;28;20097;-50
2021/10/18 07:04:06;;;;;;;48.45;12.27;;;;;;;11.32;79.55;100138.88;4989745;28;20050;-51
2021/10/18 07:06:34;;;;;;;37.13;11.85;;;;;;;11.37;79.61;100131.06;4991521;28;20085;-49
2021/10/18 07:09:02;;;;;;;38.05;11.98;;;;;;;11.36;80.71;100131.09;4993435;28;20050;-52
2021/10/18 07:11:29;;;;;;;42.65;13.38;;;;;;;11.39;79.80;100144.03;4998028;28;20042;-50
2021/10/18 07:13:55;;;;;;;45.28;13.07;;;;;;;11.41;80.49;100129.31;4985731;28;20051;-52
2021/10/18 07:16:23;;;;;;;41.78;12.85;;;;;;;11.43;80.36;100135.38;4994500;28;20042;-52
2021/10/18 07:18:49;;;;;;;40.38;12.35;;;;;;;11.45;80.75;100123.25;4985922;28;20130;-52
2021/10/18 07:21:16;;;;;;;41.50;12.00;;;;;;;11.47;80.30;100133.63;4987988;28;20050;-51
2021/10/18 07:23:45;;;;;;;41.35;13.55;;;;;;;11.50;80.04;100131.88;4991423;28;20458;-53
2021/10/18 07:26:12;;;;;;;42.10;13.38;;;;;;;11.56;79.45;100151.75;4996494;28;20434;-55
2021/10/18 07:28:38;;;;;;;43.35;12.55;;;;;;;11.57;80.05;100143.94;4988441;28;20087;-52
2021/10/18 07:31:05;;;;;;;43.67;12.85;;;;;;;11.62;79.67;100148.25;4986609;28;20072;-51
2021/10/18 07:33:32;;;;;;;42.63;13.82;;;;;;;11.68;79.49;100155.97;4994862;28;20061;-51
2021/10/18 07:36:07;;;;;;;40.97;13.43;;;;;;;11.72;79.89;100157.69;4989998;28;20449;-54
2021/10/18 07:38:38;;;;;;;43.30;13.73;;;;;;;11.75;79.54;100152.50;4992101;28;20046;-51
2021/10/18 07:41:06;;;;;;;44.78;14.18;;;;;;;11.78;79.02;100152.47;4986903;28;20059;-53
2021/10/18 07:43:33;;;;;;;40.97;13.70;;;;;;;11.81;79.06;100157.66;4988660;28;20054;-50
2021/10/18 07:45:59;;;;;;;40.63;13.32;;;;;;;11.85;78.94;100155.03;4987031;28;20054;-51
2021/10/18 07:48:26;;;;;;;43.05;14.48;;;;;;;11.88;78.95;100148.09;4993078;28;20124;-50
2021/10/18 07:50:53;;;;;;;41.53;13.90;;;;;;;11.89;79.10;100138.56;4993192;28;20055;-51
2021/10/18 07:53:19;;;;;;;38.25;13.15;;;;;;;11.94;78.95;100136.81;4991259;28;20120;-52
2021/10/18 07:55:46;;;;;;;43.05;14.07;;;;;;;11.96;79.20;100135.06;4997545;28;20049;-51
2021/10/18 07:58:21;;;;;;;39.97;14.40;;;;;;;11.99;78.88;100135.03;4985336;28;20456;-50
2021/10/18 08:00:48;;;;;;;36.95;13.70;;;;;;;12.01;79.43;100125.50;4990865;28;20056;-50
2021/10/18 08:03:15;;;;;;;32.13;12.85;;;;;;;11.99;79.29;100105.63;4984888;28;20054;-50
2021/10/18 08:05:42;;;;;;;37.67;13.45;;;;;;;11.96;79.83;100099.56;4991045;28;20186;-50
2021/10/18 08:08:10;;;;;;;35.45;13.30;;;;;;;11.95;79.62;100099.59;4986021;28;20100;-51
2021/10/18 08:10:37;;;;;;;33.75;13.48;;;;;;;11.95;79.18;100089.19;4979136;28;20073;-53
2021/10/18 08:13:04;;;;;;;37.70;13.80;;;;;;;11.94;79.20;100090.09;4981885;28;20058;-50
2021/10/18 08:15:31;;;;;;;34.15;12.57;;;;;;;11.94;80.33;100090.09;4984546;28;20046;-51
2021/10/18 08:17:58;;;;;;;32.00;12.30;;;;;;;11.97;79.08;100090.06;4991839;28;20125;-51
2021/10/18 08:20:25;;;;;;;34.33;13.43;;;;;;;11.99;79.92;100093.50;4986033;28;20442;-50
2021/10/18 08:22:52;;;;;;;36.47;13.25;;;;;;;12.02;79.92;100093.47;4987386;28;20058;-50
2021/10/18 08:25:18;;;;;;;33.00;12.60;;;;;;;12.04;79.25;100085.69;4986746;28;20370;-50
2021/10/18 08:27:45;;;;;;;33.47;12.00;;;;;;;12.02;79.06;100096.06;4985409;28;20101;-53
2021/10/18 08:30:13;;;;;;;33.10;12.68;;;;;;;12.02;78.59;100077.91;4982695;28;20065;-50
2021/10/18 08:32:40;;;;;;;33.25;12.90;;;;;;;12.00;80.05;100074.47;4986788;28;20462;-51
2021/10/18 08:35:09;;;;;;;33.42;12.32;;;;;;;12.04;79.83;100075.28;4985641;28;20059;-51
2021/10/18 08:40:27;;;;;;;31.38;11.20;;;;;;;12.05;79.32;100072.69;4990483;28;20077;-53
2021/10/18 08:42:58;;;;;;;30.58;11.95;;;;;;;12.07;79.23;100075.31;4983633;28;20054;-54
2021/10/18 08:45:25;;;;;;;28.25;11.65;;;;;;;12.06;78.92;100079.63;4990455;28;20046;-54
2021/10/18 08:47:53;;;;;;;27.95;11.93;;;;;;;12.11;79.48;100081.31;4984109;28;20108;-54
2021/10/18 08:50:22;;;;;;;30.50;12.00;;;;;;;12.08;79.20;100077.03;4988055;28;20054;-54
2021/10/18 08:52:49;;;;;;;26.35;10.50;;;;;;;12.12;78.87;100070.09;4985845;28;20053;-54
2021/10/18 08:55:16;;;;;;;27.35;10.80;;;;;;;12.14;79.71;100081.31;4994249;28;20061;-54
2021/10/18 08:57:43;;;;;;;25.90;11.43;;;;;;;12.17;79.55;100076.09;4990208;28;20051;-53
2021/10/18 09:00:38;;;;;;;26.20;11.43;;;;;;;12.18;79.55;100077.81;4984701;28;20049;-54
2021/10/18 09:03:25;;;;;;;27.88;11.73;;;;;;;12.24;79.37;100089.88;4987987;28;20066;-54
2021/10/18 09:06:09;;;;;;;28.08;10.98;;;;;;;12.25;78.43;100095.06;4993929;28;20077;-52
2021/10/18 09:08:41;;;;;;;31.08;11.65;;;;;;;12.31;79.34;100089.81;4981449;28;20525;-52
2021/10/18 09:11:12;;;;;;;28.35;10.93;;;;;;;12.36;79.41;100081.13;4990393;28;20054;-51
2021/10/18 09:13:44;;;;;;;25.92;10.73;;;;;;;12.39;78.58;100081.94;4985768;28;20108;-53
2021/10/18 09:16:40;;;;;;;23.83;10.25;;;;;;;12.42;79.42;100088.84;4986999;28;20077;-54
2021/10/18 09:19:11;;;;;;;26.98;10.73;;;;;;;12.50;78.32;100084.41;4988008;28;20445;-53
2021/10/18 09:21:42;;;;;;;25.63;11.85;;;;;;;12.53;78.57;100084.38;4993846;28;20581;-54
2021/10/18 09:24:12;;;;;;;24.10;10.38;;;;;;;12.57;78.60;100090.44;4993991;28;20046;-51
2021/10/18 09:26:41;;;;;;;23.00;10.93;;;;;;;12.64;79.35;100086.03;4988238;28;20051;-51
2021/10/18 09:29:14;;;;;;;30.02;11.05;;;;;;;12.66;78.60;100084.28;4988492;28;20046;-52
2021/10/18 09:31:44;;;;;;;24.55;10.57;;;;;;;12.73;78.65;100081.59;4987135;28;20047;-54
2021/10/18 09:34:16;;;;;;;27.80;11.35;;;;;;;12.78;79.60;100093.66;4995941;28;20046;-53
2021/10/18 09:36:44;;;;;;;23.75;11.07;;;;;;;12.81;79.37;100078.03;4988397;28;20556;-52
2021/10/18 09:39:16;;;;;;;20.83;9.70;;;;;;;12.88;78.53;100086.63;4994225;28;20194;-51
2021/10/18 09:41:54;;;;;;;21.02;10.43;;;;;;;12.94;79.15;100095.19;4992161;28;20486;-54
2021/10/18 09:44:31;;;;;;;27.85;10.52;;;;;;;13.03;78.37;100083.00;4985409;28;20054;-52
2021/10/18 09:47:05;;;;;;;24.55;11.05;;;;;;;13.10;78.50;100089.81;4989324;28;20050;-55
2021/10/18 10:51:29;;;;;;;17.85;8.93;;;;;;;14.29;75.95;100052.50;4992844;28;20402;-52
2021/10/18 10:54:01;;;;;;;23.55;10.70;;;;;;;14.39;76.89;100053.19;4992358;28;20046;-51
2021/10/18 10:57:00;;;;;;;21.45;9.40;;;;;;;14.38;76.17;100052.31;4992339;28;20037;-51
2021/10/18 10:59:30;;;;;;;18.65;9.25;;;;;;;14.46;75.69;100053.94;4987905;28;20439;-51
2021/10/18 11:02:00;;;;;;;17.48;8.48;;;;;;;14.46;76.41;100054.78;4994565;28;20135;-54
2021/10/18 11:04:44;;;;;;;19.83;9.40;;;;;;;14.47;75.57;100053.03;4988301;28;20051;-54
2021/10/18 11:07:15;;;;;;;17.98;8.65;;;;;;;14.53;76.04;100050.31;4974157;28;20133;-54
2021/10/18 11:09:49;;;;;;;16.13;8.80;;;;;;;14.58;76.24;100051.09;4973196;28;20047;-54
2021/10/18 11:12:21;;;;;;;14.30;7.88;;;;;;;14.60;75.87;100041.50;4974506;28;20148;-54
2021/10/18 11:14:55;;;;;;;14.88;7.85;;;;;;;14.62;76.06;100039.72;4974977;28;20077;-55
2021/10/18 11:17:24;;;;;;;14.02;7.78;;;;;;;14.65;75.74;100039.66;4966852;28;20104;-52
2021/10/18 11:19:57;;;;;;;12.85;7.13;;;;;;;14.74;76.15;100042.97;4980267;28;20050;-54
2021/10/18 11:22:28;;;;;;;15.68;7.13;;;;;;;14.76;75.67;100044.66;4989026;28;20046;-52
2021/10/18 11:24:55;;;;;;;14.02;7.93;;;;;;;14.84;75.55;100039.31;4989509;28;20050;-51
2021/10/18 11:27:27;;;;;;;14.90;6.55;;;;;;;14.92;76.28;100035.69;4986108;28;20055;-52
2021/10/18 11:29:56;;;;;;;13.68;7.13;;;;;;;14.98;75.41;100031.22;4990492;28;20097;-52
2021/10/18 11:32:23;;;;;;;11.55;7.05;;;;;;;15.10;75.81;100037.06;4990286;28;20058;-51
2021/10/18 11:35:03;;;;;;;15.38;7.13;;;;;;;15.19;75.17;100033.41;4988306;28;20510;-54
2021/10/18 11:38:04;;;;;;;14.68;7.40;;;;;;;15.26;75.69;100040.16;4995093;28;20042;-53
2021/10/18 11:40:34;;;;;;;12.05;7.43;;;;;;;15.32;75.11;100021.78;4995159;28;20046;-51
2021/10/18 11:43:05;;;;;;;11.63;6.35;;;;;;;15.31;75.58;100030.50;4990349;28;20108;-54
2021/10/18 11:45:34;;;;;;;15.13;7.30;;;;;;;15.33;75.35;100017.41;4990275;28;20854;-52
2021/10/18 11:48:09;;;;;;;18.08;7.22;;;;;;;15.35;75.46;100019.09;4988839;28;20587;-54
2021/10/18 11:50:38;;;;;;;10.63;6.47;;;;;;;15.35;75.13;100021.72;4994102;28;20725;-54
2021/10/18 11:53:11;;;;;;;11.35;6.68;;;;;;;15.34;75.16;100017.38;4989140;28;20516;-53
2021/10/18 11:55:40;;;;;;;12.45;6.55;;;;;;;15.36;75.17;100020.81;4986915;28;20294;-50
2021/10/18 11:58:08;;;;;;;12.82;6.38;;;;;;;15.34;75.51;100006.94;4995223;28;20046;-51
2021/10/18 12:00:41;;;;;;;11.20;6.68;;;;;;;15.34;75.41;100006.94;4991127;28;20050;-53
2021/10/18 12:03:10;;;;;;;12.45;6.53;;;;;;;15.32;75.38;100005.25;4997766;28;20064;-52
2021/10/18 12:05:42;;;;;;;12.95;5.95;;;;;;;15.35;75.80;99998.22;4992672;28;20050;-51
2021/10/18 12:08:10;;;;;;;11.07;6.18;;;;;;;15.41;75.24;99992.84;4988262;28;20045;-51
2021/10/18 12:10:38;;;;;;;10.70;6.35;;;;;;;15.44;75.12;99985.84;4988662;28;20104;-51
2021/10/18 12:13:13;;;;;;;11.38;6.10;;;;;;;15.50;75.78;99983.09;4988722;28;20094;-51
2021/10/18 12:16:11;;;;;;;12.75;5.88;;;;;;;15.53;75.82;99983.88;4990148;28;20046;-52
2021/10/18 12:18:58;;;;;;;10.93;5.38;;;;;;;15.56;75.58;99969.88;4984342;28;20054;-54
2021/10/18 12:21:28;;;;;;;11.82;6.30;;;;;;;15.62;75.12;99977.56;4986135;28;20073;-52
2021/10/18 12:23:56;;;;;;;;;;;;;;;15.48;76.25;99982.25;4994693;28;20140;-52
2021/10/18 12:26:26;;;;;;;11.13;5.43;;;;;;;15.57;75.56;99981.19;4987760;28;20417;-52